Time;durP1;ratioP1;P1;durP2;ratioP2;P2;SDS_P1;SDS_P2;PMS_P1;PMS_P2;Temp;Humidity;BMP_temperature;BMP_pressure;BME280_temperature;BME280_humidity;BME280_pressure;Samples;Min_cycle;Max_cycle;Signal;HPM_P1;HPM_P2
2022/10/05 00:02:18;;;;;;;;;;;;;;;26.52;20.49;98974.19;5019906;28;19917;-81
2022/10/05 00:04:44;;;;;;;;;;;;;;;26.56;20.70;98978.53;5029414;28;19913;-81
2022/10/05 00:07:12;;;;;;;;;;;;;;;26.54;20.47;98978.16;5030024;28;20345;-80
2022/10/05 00:09:38;;;;;;;;;;;;;;;26.48;20.56;98968.63;5027833;28;19921;-80
2022/10/05 00:12:11;;;;;;;;;;;;;;;26.28;21.09;98975.44;5026413;28;20007;-80
2022/10/05 00:14:38;;;;;;;;;;;;;;;26.37;20.97;98967.22;5024880;28;19975;-80
2022/10/05 00:17:04;;;;;;;;;;;;;;;26.71;20.79;98962.16;5064590;28;19916;-80
2022/10/05 00:19:35;;;;;;;;;;;;;;;26.91;20.38;98974.28;5075470;28;20293;-80
2022/10/05 00:22:10;;;;;;;;;;;;;;;27.03;20.51;98967.22;5076333;28;19916;-80
2022/10/05 00:24:36;;;;;;;;;;;;;;;27.00;20.24;98968.09;5047921;28;19921;-80
2022/10/05 00:27:11;;;;;;;;;;;;;;;26.83;20.58;98964.41;5059409;28;19923;-80
2022/10/05 00:29:37;;;;;;;;;;;;;;;26.74;20.73;98956.50;5075095;28;19916;-80
2022/10/05 00:32:04;;;;;;;;;;;;;;;26.92;20.45;98949.72;5073180;28;20322;-81
2022/10/05 00:34:32;;;;;;;;;;;;;;;27.13;20.40;98952.91;5074527;28;19916;-80
2022/10/05 00:36:58;;;;;;;;;;;;;;;27.20;19.87;98949.16;5068449;28;19924;-80
2022/10/05 00:39:24;;;;;;;;;;;;;;;27.01;20.13;98955.56;5077807;28;19938;-80
2022/10/05 00:41:50;;;;;;;;;;;;;;;27.08;20.25;98946.97;5064220;28;19916;-81
2022/10/05 00:44:34;;;;;;;;;;;;;;;27.01;20.24;98947.94;5065009;28;20439;-80
2022/10/05 00:47:27;;;;;;;;;;;;;;;26.66;20.91;98955.00;5069719;28;19924;-80
2022/10/05 00:50:05;;;;;;;;;;;;;;;26.60;20.47;98956.75;5068268;28;19938;-80
2022/10/05 00:52:44;;;;;;;;;;;;;;;26.46;20.65;98950.56;5071508;28;19917;-80
2022/10/05 00:55:28;;;;;;;;;;;;;;;26.56;21.11;98955.19;5073125;28;19942;-80
2022/10/05 00:58:06;;;;;;;;;;;;;;;26.73;20.82;98968.16;5061153;28;19960;-80
2022/10/05 01:00:35;;;;;;;;;;;;;;;26.91;20.33;98953.78;5065793;28;20305;-81
2022/10/05 01:03:04;;;;;;;;;;;;;;;27.00;20.43;98954.78;5061704;28;19920;-80
2022/10/05 01:06:02;;;;;;;;;;;;;;;26.78;20.56;98955.63;5066895;28;19923;-80
2022/10/05 01:08:34;;;;;;;;;;;;;;;26.78;20.77;98959.25;5019347;28;19970;-80
2022/10/05 01:11:00;;;;;;;;;;;;;;;26.51;20.93;98959.31;5052881;28;19919;-80
2022/10/05 01:13:31;;;;;;;;;;;;;;;26.46;20.71;98967.47;5073139;28;19916;-80
2022/10/05 01:16:05;;;;;;;;;;;;;;;26.74;20.57;98964.13;5070779;28;19920;-80
2022/10/05 01:18:38;;;;;;;;;;;;;;;26.59;20.63;98966.41;5070929;28;19923;-80
2022/10/05 01:21:14;;;;;;;;;;;;;;;26.79;20.70;98968.50;5066498;28;19919;-80
2022/10/05 01:23:58;;;;;;;;;;;;;;;26.97;20.29;98947.22;5068999;28;19916;-80
2022/10/05 01:26:35;;;;;;;;;;;;;;;27.12;20.08;98956.94;5065766;28;19924;-80
2022/10/05 01:29:17;;;;;;;;;;;;;;;27.08;19.74;98949.81;5062419;28;19923;-80
2022/10/05 01:31:48;;;;;;;;;;;;;;;26.66;20.31;98954.22;5063729;28;19916;-80
2022/10/05 01:34:14;;;;;;;;;;;;;;;26.58;19.91;98950.72;5066732;28;19999;-80
2022/10/05 01:36:40;;;;;;;;;;;;;;;26.74;19.92;98950.84;5068001;28;20011;-80
2022/10/05 01:39:24;;;;;;;;;;;;;;;26.59;20.06;98948.72;5051958;28;19924;-80
2022/10/05 01:42:22;;;;;;;;;;;;;;;26.19;20.85;98936.53;5040391;28;19961;-80
2022/10/05 01:44:48;;;;;;;;;;;;;;;26.02;21.06;98932.75;5023513;28;19916;-80
2022/10/05 01:47:29;;;;;;;;;;;;;;;26.23;20.91;98930.88;5070611;28;19916;-80
2022/10/05 01:50:00;;;;;;;;;;;;;;;26.41;20.40;98937.78;5070631;28;19959;-80
2022/10/05 01:52:32;;;;;;;;;;;;;;;26.40;20.59;98939.00;5066726;28;19974;-79
2022/10/05 01:55:07;;;;;;;;;;;;;;;26.42;20.14;98939.34;5068701;28;19916;-80
2022/10/05 01:57:39;;;;;;;;;;;;;;;26.23;20.71;98942.94;5072023;28;20370;-80
2022/10/05 02:00:05;;;;;;;;;;;;;;;26.33;20.54;98935.50;5052575;28;19959;-80
2022/10/05 02:02:38;;;;;;;;;;;;;;;26.47;20.12;98938.88;5067542;28;19916;-80
2022/10/05 02:05:12;;;;;;;;;;;;;;;26.54;19.94;98937.94;5072598;28;19922;-79
2022/10/05 02:07:40;;;;;;;;;;;;;;;26.51;20.30;98931.13;5069864;28;19959;-80
2022/10/05 02:10:12;;;;;;;;;;;;;;;26.46;20.15;98925.22;5073013;28;19916;-80
2022/10/05 02:12:40;;;;;;;;;;;;;;;26.47;20.36;98927.59;5067971;28;20292;-80
2022/10/05 02:15:21;;;;;;;;;;;;;;;26.53;20.08;98920.25;5072686;28;19973;-80
2022/10/05 02:17:49;;;;;;;;;;;;;;;26.57;20.38;98918.16;5072121;28;19916;-80
2022/10/05 02:20:26;;;;;;;;;;;;;;;26.64;19.95;98914.41;5070163;28;19962;-80
2022/10/05 02:22:54;;;;;;;;;;;;;;;26.44;20.02;98931.25;5059332;28;20011;-79
2022/10/05 02:25:27;;;;;;;;;;;;;;;26.31;20.43;98926.69;5062519;28;20263;-80
2022/10/05 02:27:59;;;;;;;;;;;;;;;26.09;20.76;98929.84;5056181;28;19924;-80
2022/10/05 02:30:26;;;;;;;;;;;;;;;25.80;21.29;98931.53;5065526;28;19932;-80
2022/10/05 02:33:31;;;;;;;;;;;;;;;25.80;21.07;98928.72;5067884;28;19997;-80
2022/10/05 02:36:10;;;;;;;;;;;;;;;26.06;20.79;98922.28;4960118;28;20060;-80
2022/10/05 02:38:48;;;;;;;;;;;;;;;26.43;20.45;98909.97;4958263;28;19954;-80
2022/10/05 02:41:14;;;;;;;;;;;;;;;26.68;19.66;98899.03;5031260;28;19922;-79
2022/10/05 02:43:56;;;;;;;;;;;;;;;26.24;20.01;98907.09;5067837;28;20364;-80
2022/10/05 02:46:27;;;;;;;;;;;;;;;25.80;21.21;98916.66;5066027;28;19920;-80
2022/10/05 02:49:26;;;;;;;;;;;;;;;25.79;21.20;98915.84;5066310;28;19912;-80
2022/10/05 02:51:57;;;;;;;;;;;;;;;25.95;21.00;98907.56;5025887;28;19927;-80
2022/10/05 02:54:31;;;;;;;;;;;;;;;26.28;20.29;98907.84;5062907;28;19919;-80
2022/10/05 02:57:02;;;;;;;;;;;;;;;26.49;20.59;98908.25;5069798;28;20301;-80
2022/10/05 02:59:34;;;;;;;;;;;;;;;26.61;19.94;98899.16;5070329;28;20326;-79
2022/10/05 03:02:00;;;;;;;;;;;;;;;26.49;19.51;98893.38;5064958;28;19916;-80
2022/10/05 03:04:33;;;;;;;;;;;;;;;25.99;19.84;98896.25;5069492;28;19920;-80
2022/10/05 03:07:12;;;;;;;;;;;;;;;25.77;20.94;98903.44;5069786;28;19921;-80
2022/10/05 03:09:47;;;;;;;;;;;;;;;25.65;20.86;98896.38;5063150;28;19923;-79
2022/10/05 03:12:12;;;;;;;;;;;;;;;25.62;20.85;98888.81;5072374;28;19939;-80
2022/10/05 03:14:41;;;;;;;;;;;;;;;25.58;21.30;98890.09;5070286;28;19916;-80
2022/10/05 03:17:07;;;;;;;;;;;;;;;25.67;20.87;98893.94;5054545;28;20015;-80
2022/10/05 03:19:42;;;;;;;;;;;;;;;25.71;21.18;98891.09;5034137;28;19952;-80
2022/10/05 03:22:34;;;;;;;;;;;;;;;25.60;21.32;98891.22;5045650;28;19912;-80
2022/10/05 03:25:18;;;;;;;;;;;;;;;25.75;20.99;98889.81;5023488;28;19981;-80
2022/10/05 03:28:02;;;;;;;;;;;;;;;25.86;20.91;98895.25;5053290;28;19913;-80
2022/10/05 03:30:36;;;;;;;;;;;;;;;25.90;21.04;98896.81;5041107;28;19917;-80
2022/10/05 03:33:09;;;;;;;;;;;;;;;26.02;21.07;98901.03;5041211;28;19921;-80
2022/10/05 03:35:34;;;;;;;;;;;;;;;25.98;20.89;98898.25;5036973;28;19917;-80
2022/10/05 03:38:05;;;;;;;;;;;;;;;25.96;20.91;98892.28;5040494;28;20388;-80
2022/10/05 03:40:47;;;;;;;;;;;;;;;26.03;21.04;98897.78;5050603;28;19945;-80
2022/10/05 03:43:13;;;;;;;;;;;;;;;26.20;21.16;98903.56;5042002;28;19917;-80
2022/10/05 03:45:45;;;;;;;;;;;;;;;26.31;20.90;98909.78;5054223;28;19999;-80
2022/10/05 03:48:14;;;;;;;;;;;;;;;26.42;20.80;98921.69;5056883;28;19912;-80
2022/10/05 03:51:02;;;;;;;;;;;;;;;26.29;20.76;98929.94;5048976;28;20399;-80
2022/10/05 03:53:40;;;;;;;;;;;;;;;26.23;20.69;98926.03;5057476;28;19917;-79
2022/10/05 03:56:09;;;;;;;;;;;;;;;26.31;20.53;98915.44;5051849;28;20401;-79
2022/10/05 03:58:52;;;;;;;;;;;;;;;26.49;20.38;98921.56;5058886;28;19916;-79
2022/10/05 04:01:21;;;;;;;;;;;;;;;26.15;20.17;98918.94;5043027;28;20262;-80
2022/10/05 04:03:53;;;;;;;;;;;;;;;25.85;21.02;98941.50;5050352;28;19987;-79
2022/10/05 04:06:24;;;;;;;;;;;;;;;25.84;21.07;98937.88;5053589;28;19920;-79
2022/10/05 04:08:55;;;;;;;;;;;;;;;25.83;21.29;98933.50;5045308;28;19964;-79
2022/10/05 04:11:25;;;;;;;;;;;;;;;25.99;20.93;98933.63;5050442;28;19962;-79
2022/10/05 04:13:56;;;;;;;;;;;;;;;26.23;20.64;98931.66;5050864;28;19958;-79
2022/10/05 04:16:27;;;;;;;;;;;;;;;26.34;20.54;98918.19;5057122;28;19920;-79
2022/10/05 04:19:14;;;;;;;;;;;;;;;26.56;20.12;98916.56;5071595;28;20019;-79
2022/10/05 04:21:50;;;;;;;;;;;;;;;26.47;20.13;98918.34;5070326;28;19958;-78
2022/10/05 04:24:17;;;;;;;;;;;;;;;26.25;20.72;98908.72;5061872;28;19920;-78
2022/10/05 04:26:49;;;;;;;;;;;;;;;26.32;20.64;98894.50;5067176;28;20006;-78
2022/10/05 04:29:37;;;;;;;;;;;;;;;26.48;20.63;98878.50;5059196;28;20380;-78
2022/10/05 04:33:30;;;;;;;2.63;0.77;;;;;;;26.50;20.49;98875.25;5121851;27;20626;-79
2022/10/05 04:35:56;;;;;;;2.90;0.93;;;;;;;26.33;20.59;98871.53;5120034;27;20042;-78
2022/10/05 04:38:57;;;;;;;1.77;1.00;;;;;;;26.18;20.93;98873.03;5117770;28;20032;-77
2022/10/05 04:41:54;;;;;;;2.10;1.05;;;;;;;26.22;21.24;98881.41;5105715;28;20134;-78
2022/10/05 04:44:53;;;;;;;2.85;1.17;;;;;;;26.42;21.27;98877.41;5110610;28;20035;-77
2022/10/05 04:47:49;;;;;;;2.15;1.08;;;;;;;26.70;20.42;98867.59;5109617;28;20100;-77
2022/10/05 04:50:27;;;;;;;1.73;1.30;;;;;;;26.81;19.24;98873.06;5114461;28;20495;-77
2022/10/05 04:53:26;;;;;;;3.35;1.02;;;;;;;26.22;20.08;98882.22;5129684;28;20027;-76
2022/10/05 04:56:14;;;;;;;3.70;1.42;;;;;;;25.84;20.30;98895.69;5118203;28;20391;-77
2022/10/05 04:58:55;;;;;;;3.42;1.52;;;;;;;25.98;20.25;98889.81;5108839;28;20468;-77
2022/10/05 05:01:30;;;;;;;1.92;1.52;;;;;;;26.30;20.19;98889.28;5108541;28;20403;-77
2022/10/05 05:04:12;;;;;;;3.05;1.27;;;;;;;26.44;19.95;98885.44;5109428;28;20024;-77
2022/10/05 05:06:58;;;;;;;1.52;1.40;;;;;;;26.54;19.85;98882.41;5109098;28;20037;-78
2022/10/05 05:09:54;;;;;;;1.73;1.17;;;;;;;26.64;19.72;98872.16;5128996;28;20031;-77
2022/10/05 05:13:02;;;;;;;2.25;1.50;;;;;;;26.73;19.44;98869.56;5128558;28;20487;-77
2022/10/05 05:15:38;;;;;;;3.70;1.63;;;;;;;26.27;19.31;98875.28;5131127;27;20367;-77
2022/10/05 05:18:32;;;;;;;4.25;2.08;;;;;;;25.95;20.64;98881.47;5130674;28;20019;-77
2022/10/05 05:21:25;;;;;;;1.33;1.00;;;;;;;26.13;20.56;98879.16;5123448;28;20386;-77
2022/10/05 05:24:02;;;;;;;1.67;1.00;;;;;;;26.48;20.20;98880.53;5111953;28;20052;-77
2022/10/05 05:26:47;;;;;;;1.30;0.90;;;;;;;26.73;19.89;98880.81;5130761;28;20028;-77
2022/10/05 05:32:52;;;;;;;0.70;0.70;;;;;;;27.10;19.66;98897.41;5119226;28;20062;-77
2022/10/05 05:35:41;;;;;;;0.95;0.82;;;;;;;27.04;20.23;98892.72;5130303;28;20035;-77
2022/10/05 05:38:16;;;;;;;1.25;0.90;;;;;;;27.16;20.01;98890.03;5129599;28;20019;-77
2022/10/05 05:41:01;;;;;;;1.02;0.98;;;;;;;27.38;20.23;98884.72;5130171;28;20478;-77
2022/10/05 05:43:33;;;;;;;2.53;1.15;;;;;;;27.15;19.88;98902.53;5104039;28;20448;-77
2022/10/05 05:46:04;;;;;;;3.80;0.98;;;;;;;26.55;20.04;98900.09;5096287;28;20483;-77
2022/10/05 05:48:37;;;;;;;1.38;1.00;;;;;;;26.33;21.32;98907.34;5095605;28;20036;-77
2022/10/05 05:51:13;;;;;;;2.05;1.10;;;;;;;26.63;21.31;98907.97;5113181;28;20066;-77
2022/10/05 05:53:44;;;;;;;1.63;1.00;;;;;;;26.91;20.88;98903.06;5116411;28;20099;-77
2022/10/05 05:56:13;;;;;;;1.20;0.90;;;;;;;26.78;21.37;98908.53;5104719;28;20391;-77
2022/10/05 05:59:17;;;;;;;3.22;1.02;;;;;;;26.69;22.36;98897.00;5095195;28;20066;-77
2022/10/05 06:01:51;;;;;;;1.00;0.80;;;;;;;27.42;21.64;98903.16;5096016;28;20040;-77
2022/10/05 06:04:36;;;;;;;1.50;1.10;;;;;;;27.53;21.92;98893.66;5095873;28;20035;-77
2022/10/05 06:07:05;;;;;;;2.28;1.48;;;;;;;27.52;22.25;98877.97;5096097;28;20028;-77
2022/10/05 06:09:53;;;;;;;1.67;1.38;;;;;;;27.17;22.53;98874.69;5096201;28;20051;-77
2022/10/05 06:12:33;;;;;;;2.22;1.30;;;;;;;26.90;22.69;98867.63;5114948;28;20046;-77
2022/10/05 06:15:20;;;;;;;1.30;1.17;;;;;;;27.36;22.10;98875.88;5115988;28;20036;-77
2022/10/05 06:17:54;;;;;;;2.40;1.20;;;;;;;27.23;22.48;98889.06;5114746;28;20115;-77
2022/10/05 06:20:58;;;;;;;3.42;1.20;;;;;;;27.37;22.33;98900.88;5115580;28;20043;-77
2022/10/05 06:23:28;;;;;;;1.83;1.20;;;;;;;27.27;22.93;98907.50;5094245;28;20047;-78
2022/10/05 06:26:23;;;;;;;1.60;1.00;;;;;;;27.94;22.65;98903.13;5115894;28;20032;-77
2022/10/05 06:29:01;;;;;;;1.38;1.00;;;;;;;27.98;23.12;98901.00;5113562;28;20131;-77
2022/10/05 06:31:49;;;;;;;1.23;1.02;;;;;;;27.62;23.32;98905.94;5115429;28;20063;-78
2022/10/05 06:34:34;;;;;;;2.38;1.00;;;;;;;27.36;23.34;98910.53;5095347;28;20056;-78
2022/10/05 06:37:12;;;;;;;5.35;1.25;;;;;;;27.08;24.07;98925.22;5095070;28;20028;-78
2022/10/05 06:40:02;;;;;;;4.30;1.20;;;;;;;27.14;24.08;98923.47;5095096;28;20103;-77
2022/10/05 06:43:01;;;;;;;1.25;0.90;;;;;;;27.45;23.67;98932.50;5110737;28;20027;-77
2022/10/05 06:46:17;;;;;;;2.17;1.05;;;;;;;27.69;24.03;98925.53;5091457;28;20051;-78
2022/10/05 06:49:15;;;;;;;2.80;1.23;;;;;;;27.71;25.13;98928.69;5095201;28;20059;-78
2022/10/05 06:52:13;;;;;;;2.33;1.25;;;;;;;27.69;24.87;98931.16;5110878;28;20130;-77
2022/10/05 06:54:54;;;;;;;1.45;1.15;;;;;;;27.67;25.63;98915.91;5114496;28;20567;-78
2022/10/05 06:57:39;;;;;;;2.42;0.90;;;;;;;28.12;24.99;98921.69;5115600;28;20039;-78
2022/10/05 07:00:18;;;;;;;1.90;0.90;;;;;;;27.69;25.04;98917.06;5114947;28;20035;-78
2022/10/05 07:02:53;;;;;;;1.40;0.80;;;;;;;27.70;25.14;98910.16;5103172;28;20040;-77
2022/10/05 07:05:37;;;;;;;4.13;1.17;;;;;;;27.30;25.41;98912.28;5114358;28;20036;-77
2022/10/05 07:08:09;;;;;;;1.67;1.40;;;;;;;28.00;24.84;98911.91;5114671;28;20032;-78
2022/10/05 07:11:06;;;;;;;2.22;1.10;;;;;;;27.79;24.46;98927.31;5114914;28;20035;-78
2022/10/05 07:14:00;;;;;;;2.08;1.40;;;;;;;27.69;25.19;98916.25;5115040;28;20035;-78
2022/10/05 07:16:51;;;;;;;1.33;1.08;;;;;;;27.72;25.00;98923.84;5114861;28;20177;-78
2022/10/05 07:19:40;;;;;;;1.10;1.00;;;;;;;28.00;25.09;98929.66;5114592;28;20067;-78
2022/10/05 07:22:23;;;;;;;1.13;0.98;;;;;;;28.31;24.75;98932.88;5112794;28;20068;-78
2022/10/05 07:25:19;;;;;;;1.15;0.93;;;;;;;28.56;24.99;98935.88;5114807;28;20293;-78
2022/10/05 07:28:06;;;;;;;1.67;0.93;;;;;;;29.61;24.19;98924.81;5093971;28;20023;-78
2022/10/05 07:30:50;;;;;;;4.57;0.85;;;;;;;28.62;25.11;98917.16;5110805;28;20035;-78
2022/10/05 07:33:40;;;;;;;1.65;1.10;;;;;;;28.75;25.40;98920.06;5114222;28;20075;-78
2022/10/05 07:39:39;;;;;;;1.10;0.80;;;;;;;29.46;24.55;98912.34;5097176;28;20082;-78
2022/10/05 07:42:25;;;;;;;3.22;1.00;;;;;;;30.08;22.92;98901.03;5114253;28;20034;-78
2022/10/05 07:45:07;;;;;;;1.23;0.60;;;;;;;30.27;22.80;98901.25;5114285;28;20467;-78
2022/10/05 07:48:01;;;;;;;0.85;0.60;;;;;;;30.91;22.45;98902.63;5102040;28;20497;-78
2022/10/05 07:50:45;;;;;;;0.73;0.60;;;;;;;30.96;22.02;98910.56;5062662;28;20420;-78
2022/10/05 07:53:37;;;;;;;1.10;0.73;;;;;;;30.59;22.25;98912.28;5093635;28;20042;-78
2022/10/05 07:56:14;;;;;;;0.52;0.52;;;;;;;30.50;22.74;98906.53;5093615;28;20028;-78
2022/10/05 07:58:50;;;;;;;1.00;0.50;;;;;;;30.60;22.76;98905.34;5111969;28;20110;-77
2022/10/05 08:01:30;;;;;;;0.65;0.60;;;;;;;30.95;22.11;98903.31;5114204;28;20035;-78
2022/10/05 08:04:36;;;;;;;1.02;0.45;;;;;;;31.23;21.88;98885.19;5113692;28;20111;-78
2022/10/05 08:07:05;;;;;;;0.90;0.50;;;;;;;31.11;21.55;98884.03;5113469;28;20039;-78
2022/10/05 08:10:01;;;;;;;0.65;0.60;;;;;;;31.11;21.90;98884.03;5113479;28;20051;-78
2022/10/05 08:12:56;;;;;;;1.67;0.88;;;;;;;31.36;22.46;98898.06;5104202;28;20114;-78
2022/10/05 08:15:47;;;;;;;1.88;0.68;;;;;;;30.68;22.47;98907.47;5113862;28;20028;-78
2022/10/05 08:18:32;;;;;;;;;;;;;;;30.98;22.22;98906.00;5113926;28;20030;-78
2022/10/05 08:20:59;;;;;;;0.60;0.60;;;;;;;30.68;21.65;98901.81;5113717;28;19911;-78
2022/10/05 08:23:50;;;;;;;1.58;0.70;;;;;;;30.86;23.41;98909.66;5113711;28;20032;-78
2022/10/05 08:26:29;;;;;;;1.98;0.60;;;;;;;31.27;21.80;98900.06;5113771;28;20031;-78
2022/10/05 08:29:29;;;;;;;1.00;0.50;;;;;;;31.94;23.17;98892.50;5113101;28;20027;-78
2022/10/05 08:32:01;;;;;;;1.77;0.70;;;;;;;31.76;19.66;98892.44;5104795;28;20079;-78
2022/10/05 08:34:47;;;;;;;0.50;0.50;;;;;;;32.12;22.32;98886.09;5093027;28;20028;-78
2022/10/05 08:37:22;;;;;;;2.00;0.70;;;;;;;31.78;21.85;98891.97;5093358;28;20384;-78
2022/10/05 08:40:07;;;;;;;1.58;1.15;;;;;;;31.66;21.70;98884.34;5093130;28;20029;-78
2022/10/05 08:43:17;;;;;;;0.60;0.50;;;;;;;32.45;22.00;98889.16;5097290;28;20032;-78
2022/10/05 08:46:12;;;;;;;1.10;0.55;;;;;;;32.59;21.72;98894.25;5100317;28;20036;-78
2022/10/05 08:48:50;;;;;;;0.47;0.47;;;;;;;31.45;21.57;98894.50;5101305;28;20035;-78
2022/10/05 08:51:16;;;;;;;2.80;0.85;;;;;;;30.97;22.80;98906.47;5113383;28;20059;-78
2022/10/05 08:54:04;;;;;;;0.65;0.50;;;;;;;32.26;22.28;98899.72;5113555;28;20543;-78
2022/10/05 08:56:36;;;;;;;0.60;0.50;;;;;;;32.85;21.73;98900.41;5109208;28;20032;-78
2022/10/05 08:59:23;;;;;;;0.60;0.50;;;;;;;33.12;20.34;98906.09;5113407;28;20063;-78
2022/10/05 09:01:52;;;;;;;1.27;0.45;;;;;;;32.36;20.77;98895.63;5108809;28;20494;-79
2022/10/05 09:04:39;;;;;;;0.43;0.43;;;;;;;32.70;21.95;98908.78;5093198;28;20089;-77
2022/10/05 09:07:24;;;;;;;0.73;0.50;;;;;;;33.13;20.56;98902.81;5113185;28;20073;-78
2022/10/05 09:10:41;;;;;;;0.50;0.50;;;;;;;33.54;20.93;98897.69;5113565;28;20040;-79
2022/10/05 09:13:10;;;;;;;0.32;0.32;;;;;;;33.60;20.84;98892.91;5089775;28;20047;-78
2022/10/05 09:15:58;;;;;;;2.97;0.60;;;;;;;34.01;21.45;98889.22;5113221;28;20525;-79
2022/10/05 09:18:51;;;;;;;0.98;0.50;;;;;;;33.69;21.15;98887.16;5113324;28;20469;-78
2022/10/05 09:21:26;;;;;;;0.50;0.50;;;;;;;32.99;21.17;98885.53;5117128;28;20039;-79
2022/10/05 09:24:25;;;;;;;1.00;0.52;;;;;;;33.53;21.62;98893.22;5116913;28;20119;-79
2022/10/05 09:27:14;;;;;;;0.43;0.40;;;;;;;34.01;21.83;98892.06;5097464;28;20040;-79
2022/10/05 09:29:49;;;;;;;1.27;0.40;;;;;;;33.97;20.82;98903.66;5096523;28;20041;-79
2022/10/05 09:32:29;;;;;;;1.95;0.50;;;;;;;33.65;20.98;98897.94;5095693;28;20056;-79
2022/10/05 09:34:58;;;;;;;0.47;0.35;;;;;;;33.89;20.40;98907.31;5096824;28;20043;-79
2022/10/05 09:37:43;;;;;;;2.40;0.50;;;;;;;34.12;21.43;98902.97;5096978;28;20024;-79
2022/10/05 09:40:35;;;;;;;0.40;0.40;;;;;;;34.41;22.09;98914.50;5109856;28;20356;-79
2022/10/05 09:43:17;;;;;;;0.57;0.50;;;;;;;34.49;20.89;98905.13;5103955;28;20510;-79
2022/10/05 09:46:11;;;;;;;0.90;0.50;;;;;;;34.52;21.28;98915.56;5095889;28;20476;-79
2022/10/05 09:49:06;;;;;;;0.77;0.40;;;;;;;34.15;22.60;98910.53;5096288;28;20073;-79
2022/10/05 09:51:59;;;;;;;0.68;0.50;;;;;;;34.47;21.76;98899.09;5096227;28;20384;-79
2022/10/05 09:54:28;;;;;;;0.50;0.40;;;;;;;34.88;20.18;98896.56;5099410;28;20043;-79
2022/10/05 09:57:16;;;;;;;0.88;0.40;;;;;;;34.59;20.08;98898.06;5116085;28;20070;-79
2022/10/05 10:00:20;;;;;;;0.82;0.50;;;;;;;35.01;20.27;98899.97;5116373;28;20084;-79
2022/10/05 10:03:25;;;;;;;0.52;0.40;;;;;;;34.73;19.83;98899.38;5116817;28;20122;-79
2022/10/05 10:06:11;;;;;;;2.45;0.60;;;;;;;34.39;21.17;98902.78;5116812;28;20124;-79
2022/10/05 10:09:16;;;;;;;0.40;0.40;;;;;;;34.68;21.28;98906.56;5116459;28;20113;-79
2022/10/05 10:11:54;;;;;;;1.13;0.40;;;;;;;34.92;19.69;98897.97;5103550;28;20107;-79
2022/10/05 10:14:52;;;;;;;0.50;0.45;;;;;;;34.11;21.53;98887.94;5111003;28;20085;-79
2022/10/05 10:17:49;;;;;;;0.40;0.28;;;;;;;33.60;22.19;98895.75;5114258;28;20114;-79
2022/10/05 10:20:57;;;;;;;0.65;0.40;;;;;;;33.74;22.14;98889.34;5082511;28;20039;-78
2022/10/05 10:23:58;;;;;;;0.50;0.45;;;;;;;34.47;21.32;98889.75;5095630;28;20028;-79
2022/10/05 10:26:56;;;;;;;0.43;0.43;;;;;;;34.88;21.17;98888.81;5096304;28;20509;-79
2022/10/05 10:29:49;;;;;;;0.50;0.50;;;;;;;34.31;20.63;98890.97;5115328;28;20111;-79
2022/10/05 10:32:50;;;;;;;0.55;0.52;;;;;;;34.38;21.49;98881.28;5115297;28;20507;-79
2022/10/05 10:35:31;;;;;;;1.75;0.47;;;;;;;33.68;21.95;98872.13;5115791;28;20036;-79
2022/10/05 10:38:35;;;;;;;0.40;0.40;;;;;;;34.27;22.37;98884.66;5115932;28;20031;-79
2022/10/05 10:41:37;;;;;;;0.50;0.40;;;;;;;34.63;21.33;98884.44;5115484;28;20024;-79
2022/10/05 10:44:40;;;;;;;0.57;0.40;;;;;;;35.21;21.45;98880.91;5051961;28;20128;-79
2022/10/05 10:47:49;;;;;;;0.70;0.47;;;;;;;35.16;20.59;98887.31;5099115;28;20036;-79
2022/10/05 10:50:27;;;;;;;0.80;0.50;;;;;;;35.24;20.83;98882.75;5114732;28;20036;-79
2022/10/05 10:53:11;;;;;;;0.77;0.40;;;;;;;35.40;20.68;98890.81;5115503;28;20035;-79
2022/10/05 10:55:58;;;;;;;0.93;0.40;;;;;;;35.31;20.35;98887.31;5114957;28;20493;-79
2022/10/05 10:58:24;;;;;;;0.75;0.60;;;;;;;35.37;20.22;98888.19;5115326;28;20074;-79
2022/10/05 11:00:59;;;;;;;1.75;0.65;;;;;;;35.49;21.06;98892.03;5114371;28;20042;-79
2022/10/05 11:03:49;;;;;;;0.65;0.50;;;;;;;35.81;20.38;98891.81;5115196;28;20035;-79
2022/10/05 11:06:46;;;;;;;1.13;0.60;;;;;;;35.93;19.64;98887.84;5115212;28;20487;-79
2022/10/05 11:09:41;;;;;;;0.43;0.40;;;;;;;36.17;20.57;98884.06;5115071;28;20031;-79
2022/10/05 11:12:12;;;;;;;0.82;0.60;;;;;;;36.33;19.42;98877.78;5114683;28;20482;-79
2022/10/05 11:15:17;;;;;;;1.85;1.02;;;;;;;36.07;19.47;98871.94;5109272;28;20368;-79
2022/10/05 11:18:14;;;;;;;2.45;0.70;;;;;;;36.01;20.04;98879.69;5114053;28;20050;-79
2022/10/05 11:20:47;;;;;;;0.82;0.82;;;;;;;35.96;19.83;98877.50;5114589;28;20119;-79
2022/10/05 11:23:36;;;;;;;0.75;0.60;;;;;;;36.19;20.15;98878.63;5106452;28;20110;-79
2022/10/05 11:26:32;;;;;;;2.25;0.70;;;;;;;36.20;19.20;98869.53;5114057;28;20040;-79
2022/10/05 11:29:35;;;;;;;0.60;0.60;;;;;;;36.30;19.17;98875.91;5114666;28;20028;-79
2022/10/05 11:32:23;;;;;;;0.70;0.60;;;;;;;36.13;19.15;98863.47;5113970;28;20148;-80
2022/10/05 11:35:10;;;;;;;1.55;0.65;;;;;;;35.74;18.85;98863.63;5113766;28;20467;-79
2022/10/05 11:38:00;;;;;;;1.42;0.70;;;;;;;35.19;19.58;98877.75;5114500;28;20031;-79
2022/10/05 11:40:30;;;;;;;0.93;0.93;;;;;;;35.58;19.87;98872.72;5094155;28;20387;-79
2022/10/05 11:43:37;;;;;;;1.13;1.02;;;;;;;35.53;20.75;98878.34;5109825;28;20383;-79
2022/10/05 11:46:14;;;;;;;0.90;0.70;;;;;;;35.72;19.12;98856.84;5059279;28;20068;-80
2022/10/05 11:49:03;;;;;;;0.85;0.80;;;;;;;35.76;20.80;98874.56;5114163;28;20092;-79
2022/10/05 11:52:11;;;;;;;1.35;0.70;;;;;;;36.06;20.17;98870.38;5112432;28;20061;-79
2022/10/05 11:55:23;;;;;;;0.82;0.82;;;;;;;35.77;20.65;98870.44;5093978;28;20126;-79
2022/10/05 11:57:56;;;;;;;0.52;0.50;;;;;;;36.24;20.70;98863.63;5113703;28;20035;-79
2022/10/05 12:00:29;;;;;;;0.90;0.70;;;;;;;36.44;20.63;98866.47;5114050;28;20027;-79
2022/10/05 12:03:17;;;;;;;0.70;0.60;;;;;;;36.08;20.70;98864.97;5112501;28;20051;-79
2022/10/05 12:06:21;;;;;;;0.90;0.60;;;;;;;36.20;20.29;98863.03;5113990;28;20487;-79
2022/10/05 12:09:00;;;;;;;1.48;0.60;;;;;;;36.27;20.55;98863.38;5112509;28;20085;-80
2022/10/05 12:12:03;;;;;;;2.05;0.63;;;;;;;36.34;20.98;98857.25;5112440;28;20372;-79
2022/10/05 12:14:32;;;;;;;0.70;0.63;;;;;;;36.20;19.65;98860.94;5110762;28;20038;-79
2022/10/05 12:17:01;;;;;;;0.73;0.73;;;;;;;36.04;20.11;98862.28;5114184;28;20438;-79
2022/10/05 12:20:06;;;;;;;1.00;0.77;;;;;;;36.27;20.89;98863.38;5110569;28;20513;-80
2022/10/05 12:22:55;;;;;;;0.90;0.70;;;;;;;36.17;21.38;98861.16;5091910;28;20100;-80
2022/10/05 12:25:34;;;;;;;1.27;0.93;;;;;;;35.66;19.88;98861.69;5112170;28;20101;-80
2022/10/05 12:28:11;;;;;;;0.90;0.70;;;;;;;35.90;20.10;98860.25;5105672;28;20032;-80
2022/10/05 12:31:25;;;;;;;0.45;0.45;;;;;;;35.87;20.37;98852.66;5112478;28;20044;-80
2022/10/05 12:34:29;;;;;;;2.72;1.00;;;;;;;35.98;20.63;98861.44;5109160;28;20059;-80
2022/10/05 12:37:45;;;;;;;0.98;0.88;;;;;;;36.16;19.48;98854.66;5093543;28;20032;-80
2022/10/05 12:40:53;;;;;;;3.05;1.08;;;;;;;36.35;19.37;98849.44;5061534;28;20116;-80
2022/10/05 12:43:23;;;;;;;1.42;0.70;;;;;;;35.89;19.92;98849.31;5034328;28;20545;-80
2022/10/05 12:46:16;;;;;;;2.38;0.80;;;;;;;35.99;20.38;98850.78;5087351;28;20036;-80
2022/10/05 12:48:48;;;;;;;1.58;0.70;;;;;;;35.54;18.35;98852.16;5093514;28;20048;-80
2022/10/05 12:51:33;;;;;;;1.08;0.63;;;;;;;35.37;19.52;98846.13;5093301;28;20419;-79
2022/10/05 12:54:05;;;;;;;1.60;0.80;;;;;;;35.78;19.87;98849.91;5094688;28;20032;-80
2022/10/05 12:57:29;;;;;;;0.60;0.50;;;;;;;35.68;18.58;98845.63;5107127;28;20023;-80
2022/10/05 13:00:03;;;;;;;1.00;0.68;;;;;;;35.95;20.46;98847.31;5047864;28;20044;-79
2022/10/05 13:02:32;;;;;;;3.15;0.90;;;;;;;35.58;20.82;98849.88;5051567;28;20048;-79
2022/10/05 13:05:11;;;;;;;1.05;0.60;;;;;;;35.81;20.69;98837.50;5083523;28;20044;-79
2022/10/05 13:07:46;;;;;;;0.95;0.70;;;;;;;35.67;20.25;98831.81;5103712;28;20063;-79
2022/10/05 13:10:32;;;;;;;0.60;0.60;;;;;;;35.67;20.21;98821.19;5115493;28;20067;-79
2022/10/05 13:13:11;;;;;;;0.80;0.60;;;;;;;35.08;22.13;98814.72;5115875;28;20036;-79
2022/10/05 13:15:48;;;;;;;1.80;0.70;;;;;;;34.82;20.42;98818.63;5111499;28;20028;-79
2022/10/05 13:18:32;;;;;;;0.68;0.50;;;;;;;34.91;21.17;98815.69;5097115;28;20106;-81
2022/10/05 13:21:18;;;;;;;0.80;0.57;;;;;;;35.40;21.59;98819.41;5095036;28;20040;-81